Richland, Nebraska
Current Conditions -  °F | °C
As of 8:35 PM on Sunday 23 Nov 2014 (Local Time) from KOLU Reporting Station
Broken Clouds Broken Clouds  
Wind Chill: 27°   Ceiling: 4400
Heat Index: 37°   Visibility: 10mi
Dew Point: 25°   Wind: 20mph
Humidity: 60%   Direction: 310°NW
Pressure: 29.61"   Gusts: 26mph
Location:  41.4657°N, 97.2904°W
Report Text: KOLU 240235Z AUTO 31017G23KT 10SM BKN044 03/M04 A2961 RMK AO1
Loading
Personal Weather Stations






























Interactive Weather Map New forecast layout! Learn more

10-Day Weather Forecast

Advertisements
Track Severe Weather on mobile